createdAt,value
2022-10-19T00:00:15.058Z,19.82
2022-10-19T00:01:20.385Z,19.81
2022-10-19T00:02:21.951Z,19.80
2022-10-19T00:03:23.478Z,19.81
2022-10-19T00:04:24.983Z,19.79
2022-10-19T00:05:26.402Z,19.79
2022-10-19T00:06:27.906Z,19.78
2022-10-19T00:07:29.407Z,19.78
2022-10-19T00:08:30.828Z,19.77
2022-10-19T00:09:32.267Z,19.76
2022-10-19T00:10:33.752Z,19.77
2022-10-19T00:11:35.727Z,19.76
2022-10-19T00:12:37.624Z,19.75
2022-10-19T00:13:39.805Z,19.75
2022-10-19T00:14:41.505Z,19.73
2022-10-19T00:15:42.949Z,19.72
2022-10-19T00:16:44.598Z,19.72
2022-10-19T00:17:46.046Z,19.69
2022-10-19T00:18:47.476Z,19.69
2022-10-19T00:19:48.975Z,19.68
2022-10-19T00:20:50.419Z,19.66
2022-10-19T00:21:52.021Z,19.66
2022-10-19T00:22:53.469Z,19.64
2022-10-19T00:23:54.903Z,19.63
2022-10-19T00:24:56.814Z,19.62
2022-10-19T00:25:58.426Z,19.60
2022-10-19T00:26:59.899Z,19.59
2022-10-19T00:28:01.385Z,19.56
2022-10-19T00:29:03.027Z,19.56
2022-10-19T00:30:04.869Z,19.55
2022-10-19T00:31:13.670Z,19.54
2022-10-19T00:32:15.159Z,19.52
2022-10-19T00:33:21.352Z,19.52
2022-10-19T00:34:22.807Z,19.51
2022-10-19T00:35:24.463Z,19.49
2022-10-19T00:36:26.913Z,19.49
2022-10-19T00:37:28.326Z,19.47
2022-10-19T00:38:29.847Z,19.45
2022-10-19T00:39:31.297Z,19.44
2022-10-19T00:40:38.892Z,19.43
2022-10-19T00:41:40.515Z,19.42
2022-10-19T00:42:41.934Z,19.41
2022-10-19T00:43:53.674Z,19.39
2022-10-19T00:44:57.154Z,19.39
2022-10-19T00:45:58.596Z,19.38
2022-10-19T00:47:01.906Z,19.37
2022-10-19T00:48:03.498Z,19.35
2022-10-19T00:49:09.888Z,19.34
2022-10-19T00:50:13.175Z,19.33
2022-10-19T00:51:14.632Z,19.31
2022-10-19T00:52:17.254Z,19.30
2022-10-19T00:53:18.757Z,19.29
2022-10-19T00:54:20.219Z,19.29
2022-10-19T00:55:21.661Z,19.29
2022-10-19T00:56:23.118Z,19.27
2022-10-19T00:57:26.102Z,19.27
2022-10-19T00:58:27.636Z,19.26
2022-10-19T00:59:31.743Z,19.25
2022-10-19T01:00:34.523Z,19.25
2022-10-19T01:01:35.994Z,19.24
2022-10-19T01:02:37.632Z,19.22
2022-10-19T01:03:39.291Z,19.22
2022-10-19T01:04:42.143Z,19.22
2022-10-19T01:05:43.613Z,19.21
2022-10-19T01:06:45.076Z,19.20
2022-10-19T01:07:46.782Z,19.18
2022-10-19T01:08:48.242Z,19.16
2022-10-19T01:09:49.716Z,19.15
2022-10-19T01:11:11.270Z,19.14
2022-10-19T01:12:18.481Z,19.14
2022-10-19T01:13:49.343Z,19.13
2022-10-19T01:14:53.611Z,19.10
2022-10-19T01:16:00.784Z,19.07
2022-10-19T01:17:09.156Z,19.06
2022-10-19T01:18:16.446Z,19.03
2022-10-19T01:19:17.940Z,19.01
2022-10-19T01:20:19.604Z,19.03
2022-10-19T01:21:33.039Z,19.02
2022-10-19T01:23:10.261Z,19.01
2022-10-19T01:24:19.015Z,19.00
2022-10-19T01:25:24.620Z,19.00
2022-10-19T01:26:41.218Z,19.01
2022-10-19T01:27:48.886Z,18.98
2022-10-19T01:29:22.499Z,18.97
2022-10-19T01:30:27.074Z,18.97
2022-10-19T01:31:28.483Z,18.97
2022-10-19T01:32:35.927Z,18.97
2022-10-19T01:33:46.591Z,18.98
2022-10-19T01:34:50.542Z,18.98
2022-10-19T01:35:51.976Z,19.00
2022-10-19T01:36:56.439Z,19.01
2022-10-19T01:37:57.875Z,19.02
2022-10-19T01:39:01.799Z,19.02
2022-10-19T01:40:17.841Z,19.03
2022-10-19T01:41:31.766Z,19.03
2022-10-19T01:42:38.865Z,19.03
2022-10-19T01:43:42.328Z,19.02
2022-10-19T01:44:50.642Z,19.03
2022-10-19T01:45:55.655Z,19.03
2022-10-19T01:46:58.163Z,19.02
2022-10-19T01:48:01.747Z,19.04
2022-10-19T01:49:05.063Z,19.04
2022-10-19T01:50:09.179Z,19.03
2022-10-19T01:51:21.161Z,19.05
2022-10-19T01:52:22.751Z,19.05
2022-10-19T01:53:24.494Z,19.06
2022-10-19T01:54:26.837Z,19.04
2022-10-19T01:55:28.266Z,19.06
2022-10-19T01:56:30.639Z,19.07
2022-10-19T01:57:33.095Z,19.09
2022-10-19T01:58:35.167Z,19.09
2022-10-19T01:59:36.671Z,19.10
2022-10-19T02:00:40.142Z,19.10
2022-10-19T02:01:43.257Z,19.12
2022-10-19T02:02:47.993Z,19.14
2022-10-19T02:03:49.454Z,19.15
2022-10-19T02:04:51.038Z,19.15
2022-10-19T02:05:52.503Z,19.15
2022-10-19T02:06:54.153Z,19.17
2022-10-19T02:07:56.366Z,19.16
2022-10-19T02:08:57.963Z,19.17
2022-10-19T02:09:59.461Z,19.19
2022-10-19T02:11:00.954Z,19.18
2022-10-19T02:12:03.682Z,19.21
2022-10-19T02:13:05.165Z,19.20
2022-10-19T02:14:09.235Z,19.22
2022-10-19T02:15:11.719Z,19.23
2022-10-19T02:16:14.515Z,19.24
2022-10-19T02:17:17.123Z,19.25
2022-10-19T02:18:20.167Z,19.25
2022-10-19T02:20:28.697Z,19.26
2022-10-19T02:21:30.126Z,19.27
2022-10-19T02:22:31.791Z,19.27
2022-10-19T02:23:34.061Z,19.27
2022-10-19T02:24:35.481Z,19.27
2022-10-19T02:25:36.938Z,19.28
2022-10-19T02:26:38.546Z,19.28
2022-10-19T02:27:41.858Z,19.28
2022-10-19T02:28:43.287Z,19.29
2022-10-19T02:29:44.736Z,19.29
2022-10-19T02:30:46.323Z,19.31
2022-10-19T02:31:47.767Z,19.31
2022-10-19T02:32:49.294Z,19.31
2022-10-19T02:33:50.842Z,19.32
2022-10-19T02:34:52.290Z,19.33
2022-10-19T02:35:53.830Z,19.33
2022-10-19T02:36:55.315Z,19.34
2022-10-19T02:37:57.991Z,19.34
2022-10-19T02:38:59.464Z,19.35
2022-10-19T02:40:01.207Z,19.37
2022-10-19T02:41:16.030Z,19.35
2022-10-19T02:42:18.640Z,19.31
2022-10-19T02:43:21.383Z,19.30
2022-10-19T02:44:23.803Z,19.30
2022-10-19T02:45:29.159Z,19.29
2022-10-19T02:47:47.000Z,19.27
2022-10-19T02:48:48.658Z,19.24
2022-10-19T02:49:50.619Z,19.25
2022-10-19T02:50:52.102Z,19.24
2022-10-19T02:51:56.411Z,19.24
2022-10-19T02:53:00.982Z,19.21
2022-10-19T02:54:05.150Z,19.18
2022-10-19T02:55:07.252Z,19.19
2022-10-19T02:56:09.088Z,19.19
2022-10-19T02:57:23.845Z,19.17
2022-10-19T02:58:25.273Z,19.14
2022-10-19T02:59:26.802Z,19.10
2022-10-19T03:00:28.223Z,19.07
2022-10-19T03:01:29.794Z,19.09
2022-10-19T03:02:31.391Z,19.10
2022-10-19T03:03:32.828Z,19.07
2022-10-19T03:04:34.457Z,19.07
2022-10-19T03:05:36.065Z,19.08
2022-10-19T03:06:37.486Z,19.11
2022-10-19T03:07:39.037Z,19.08
2022-10-19T03:08:40.451Z,19.09
2022-10-19T03:09:42.173Z,19.07
2022-10-19T03:10:43.687Z,18.96
2022-10-19T03:11:45.102Z,19.07
2022-10-19T03:12:46.588Z,19.05
2022-10-19T03:14:54.504Z,19.05
2022-10-19T03:15:55.983Z,19.05
2022-10-19T03:16:57.479Z,19.06
2022-10-19T03:17:58.974Z,19.07
2022-10-19T03:19:00.405Z,19.05
2022-10-19T03:20:01.867Z,19.01
2022-10-19T03:21:06.759Z,18.98
2022-10-19T03:22:08.174Z,18.99
2022-10-19T03:23:09.671Z,18.98
2022-10-19T03:24:11.091Z,19.00
2022-10-19T03:25:12.519Z,19.02
2022-10-19T03:26:14.665Z,19.03
2022-10-19T03:27:16.142Z,19.02
2022-10-19T03:28:17.620Z,19.01
2022-10-19T03:29:19.133Z,19.01
2022-10-19T03:30:20.546Z,19.03
2022-10-19T03:32:59.632Z,19.02
2022-10-19T03:34:02.082Z,19.01
2022-10-19T03:35:03.571Z,18.98
2022-10-19T03:36:19.332Z,18.99
2022-10-19T03:37:20.818Z,18.99
2022-10-19T03:38:22.246Z,18.97
2022-10-19T03:39:23.731Z,18.96
2022-10-19T03:40:25.167Z,18.98
2022-10-19T03:41:27.421Z,19.00
2022-10-19T03:42:28.931Z,18.99
2022-10-19T03:43:30.408Z,18.99
2022-10-19T03:44:31.953Z,18.99
2022-10-19T03:45:33.455Z,19.01
2022-10-19T03:46:35.513Z,19.01
2022-10-19T03:47:37.178Z,19.00
2022-10-19T03:48:38.768Z,18.99
2022-10-19T03:49:40.504Z,19.00
2022-10-19T03:50:41.995Z,19.02
2022-10-19T03:51:43.493Z,18.97
2022-10-19T03:52:44.975Z,18.99
2022-10-19T03:53:47.748Z,18.99
2022-10-19T03:54:52.092Z,19.01
2022-10-19T03:55:53.535Z,19.01
2022-10-19T03:56:54.975Z,18.96
2022-10-19T03:57:56.437Z,19.00
2022-10-19T03:58:58.350Z,18.99
2022-10-19T03:59:59.835Z,18.98
2022-10-19T04:01:01.487Z,18.96
2022-10-19T04:02:03.084Z,18.95
2022-10-19T04:03:04.550Z,18.94
2022-10-19T04:04:06.747Z,18.96
2022-10-19T04:05:08.302Z,18.97
2022-10-19T04:06:10.593Z,18.95
2022-10-19T04:07:12.075Z,18.99
2022-10-19T04:08:13.576Z,18.99
2022-10-19T04:09:15.874Z,19.00
2022-10-19T04:10:17.430Z,19.00
2022-10-19T04:11:20.549Z,19.01
2022-10-19T04:12:22.074Z,19.00
2022-10-19T04:13:23.536Z,18.92
2022-10-19T04:14:32.798Z,19.02
2022-10-19T04:15:34.907Z,19.03
2022-10-19T04:16:36.375Z,19.04
2022-10-19T04:17:38.099Z,19.05
2022-10-19T04:18:39.576Z,19.04
2022-10-19T04:19:41.268Z,19.03
2022-10-19T04:20:43.843Z,19.04
2022-10-19T04:21:47.144Z,19.06
2022-10-19T04:22:48.595Z,19.07
2022-10-19T04:23:50.571Z,19.07
2022-10-19T04:24:52.522Z,19.07
2022-10-19T04:25:59.247Z,19.07
2022-10-19T04:27:00.741Z,19.07
2022-10-19T04:28:02.373Z,19.08
2022-10-19T04:29:03.857Z,19.09
2022-10-19T04:30:05.596Z,19.10
2022-10-19T04:31:07.191Z,19.10
2022-10-19T04:32:08.620Z,19.11
2022-10-19T04:33:10.077Z,19.13
2022-10-19T04:34:11.621Z,19.13
2022-10-19T04:35:13.095Z,19.11
2022-10-19T04:36:14.583Z,19.12
2022-10-19T04:37:16.047Z,19.10
2022-10-19T04:38:17.518Z,19.09
2022-10-19T04:39:19.064Z,19.11
2022-10-19T04:40:20.512Z,19.10
2022-10-19T04:41:22.251Z,19.12
2022-10-19T04:42:23.733Z,19.12
2022-10-19T04:43:25.215Z,19.12
2022-10-19T04:44:26.785Z,19.11
2022-10-19T04:45:28.286Z,19.11
2022-10-19T04:46:29.887Z,19.10
2022-10-19T04:47:31.499Z,19.10
2022-10-19T04:48:33.712Z,19.10
2022-10-19T04:49:35.155Z,19.09
2022-10-19T04:50:36.642Z,19.06
2022-10-19T04:51:39.411Z,19.05
2022-10-19T04:52:40.856Z,19.01
2022-10-19T04:53:42.509Z,19.00
2022-10-19T04:54:43.963Z,19.00
2022-10-19T04:55:45.559Z,18.98
2022-10-19T04:56:47.091Z,18.97
2022-10-19T04:57:48.542Z,18.94
2022-10-19T04:58:50.011Z,18.95
2022-10-19T04:59:51.491Z,18.96
2022-10-19T05:00:53.065Z,18.96
2022-10-19T05:01:54.628Z,18.95
2022-10-19T05:02:56.130Z,18.95
2022-10-19T05:03:58.464Z,18.96
2022-10-19T05:04:59.992Z,18.96
2022-10-19T05:06:01.474Z,18.98
2022-10-19T05:07:02.931Z,18.97
2022-10-19T05:08:04.479Z,18.97
2022-10-19T05:09:05.923Z,18.99
2022-10-19T05:10:07.957Z,18.98
2022-10-19T05:11:13.159Z,18.99
2022-10-19T05:12:14.602Z,18.97
2022-10-19T05:13:16.068Z,18.95
2022-10-19T05:14:17.691Z,18.93
2022-10-19T05:15:19.207Z,18.93
2022-10-19T05:16:21.517Z,18.93
2022-10-19T05:17:22.974Z,18.95
2022-10-19T05:18:24.439Z,18.93
2022-10-19T05:19:25.895Z,18.95
2022-10-19T05:20:27.481Z,18.94
2022-10-19T05:21:29.258Z,18.93
2022-10-19T05:22:30.720Z,18.93
2022-10-19T05:24:38.698Z,18.93
2022-10-19T05:25:40.139Z,18.93
2022-10-19T05:26:41.598Z,18.95
2022-10-19T05:27:43.108Z,18.95
2022-10-19T05:28:51.265Z,18.94
2022-10-19T05:29:52.730Z,18.95
2022-10-19T05:30:54.254Z,18.93
2022-10-19T05:31:55.712Z,18.93
2022-10-19T05:32:57.197Z,18.93
2022-10-19T05:33:58.847Z,18.92
2022-10-19T05:35:00.365Z,18.94
2022-10-19T05:36:11.931Z,18.94
2022-10-19T05:37:13.391Z,18.93
2022-10-19T05:38:14.826Z,18.92
2022-10-19T05:39:16.711Z,18.92
2022-10-19T05:40:18.217Z,18.90
2022-10-19T05:41:19.920Z,18.90
2022-10-19T05:42:21.396Z,18.92
2022-10-19T05:43:22.904Z,18.94
2022-10-19T05:44:24.489Z,18.94
2022-10-19T05:45:26.092Z,18.94
2022-10-19T05:46:27.859Z,18.96
2022-10-19T05:47:31.117Z,18.97
2022-10-19T05:48:35.792Z,18.96
2022-10-19T05:49:37.286Z,18.94
2022-10-19T05:50:38.768Z,18.96
2022-10-19T05:51:40.247Z,18.93
2022-10-19T05:52:41.754Z,18.93
2022-10-19T05:53:43.346Z,18.95
2022-10-19T05:54:44.822Z,18.95
2022-10-19T05:55:46.333Z,18.93
2022-10-19T05:56:47.797Z,18.95
2022-10-19T05:57:49.228Z,18.96
2022-10-19T05:58:50.879Z,18.96
2022-10-19T05:59:52.448Z,18.97
2022-10-19T06:00:54.431Z,18.98
2022-10-19T06:01:56.000Z,18.99
2022-10-19T06:02:59.176Z,19.01
2022-10-19T06:04:01.054Z,18.99
2022-10-19T06:05:02.697Z,19.00
2022-10-19T06:06:04.960Z,19.01
2022-10-19T06:07:06.460Z,18.99
2022-10-19T06:08:08.067Z,18.98
2022-10-19T06:09:09.635Z,18.97
2022-10-19T06:10:11.223Z,18.93
2022-10-19T06:11:13.630Z,18.90
2022-10-19T06:12:16.342Z,18.88
2022-10-19T06:13:18.402Z,18.82
2022-10-19T06:14:19.872Z,18.80
2022-10-19T06:15:21.340Z,18.83
2022-10-19T06:16:23.990Z,18.83
2022-10-19T06:17:27.847Z,18.79
2022-10-19T06:18:29.603Z,18.78
2022-10-19T06:19:31.066Z,18.78
2022-10-19T06:20:34.150Z,18.77
2022-10-19T06:21:35.660Z,18.78
2022-10-19T06:22:37.127Z,18.77
2022-10-19T06:23:38.668Z,18.74
2022-10-19T06:24:40.222Z,18.74
2022-10-19T06:25:41.870Z,18.73
2022-10-19T06:26:43.339Z,18.71
2022-10-19T06:27:45.082Z,18.68
2022-10-19T06:28:46.669Z,18.66
2022-10-19T06:29:48.379Z,18.66
2022-10-19T06:30:49.988Z,18.68
2022-10-19T06:31:52.099Z,18.70
2022-10-19T06:32:53.620Z,18.70
2022-10-19T06:33:55.973Z,18.71
2022-10-19T06:34:57.636Z,18.72
2022-10-19T06:36:24.901Z,18.71
2022-10-19T06:37:26.423Z,18.68
2022-10-19T06:38:27.928Z,18.66
2022-10-19T06:39:29.362Z,18.67
2022-10-19T06:40:30.921Z,18.68
2022-10-19T06:41:32.455Z,18.71
2022-10-19T06:42:50.119Z,18.73
2022-10-19T06:43:51.946Z,18.74
2022-10-19T06:44:53.410Z,18.75
2022-10-19T06:45:54.935Z,18.72
2022-10-19T06:46:56.412Z,18.74
2022-10-19T06:48:02.226Z,18.76
2022-10-19T06:49:06.583Z,18.77
2022-10-19T06:50:08.127Z,18.75
2022-10-19T06:51:09.632Z,18.76
2022-10-19T06:52:11.106Z,18.76
2022-10-19T06:53:12.601Z,18.77
2022-10-19T06:54:14.129Z,18.79
2022-10-19T06:55:17.090Z,18.80
2022-10-19T06:56:19.032Z,18.81
2022-10-19T06:57:20.540Z,18.80
2022-10-19T06:58:22.013Z,18.81
2022-10-19T06:59:23.620Z,18.82
2022-10-19T07:00:25.075Z,18.83
2022-10-19T07:01:26.663Z,18.83
2022-10-19T07:02:28.163Z,18.85
2022-10-19T07:03:29.779Z,18.86
2022-10-19T07:04:31.308Z,18.86
2022-10-19T07:05:32.768Z,18.86
2022-10-19T07:06:34.237Z,18.88
2022-10-19T07:07:36.155Z,18.89
2022-10-19T07:08:38.199Z,18.91
2022-10-19T07:09:39.719Z,18.84
2022-10-19T07:10:41.183Z,18.86
2022-10-19T07:11:46.092Z,18.88
2022-10-19T07:12:47.970Z,18.87
2022-10-19T07:13:49.432Z,18.88
2022-10-19T07:14:51.178Z,18.89
2022-10-19T07:15:58.613Z,18.92
2022-10-19T07:17:00.102Z,18.93
2022-10-19T07:18:01.570Z,18.92
2022-10-19T07:19:03.040Z,18.93
2022-10-19T07:20:04.744Z,18.94
2022-10-19T07:21:07.114Z,18.96
2022-10-19T07:22:08.601Z,18.96
2022-10-19T07:23:10.081Z,18.97
2022-10-19T07:24:11.543Z,18.98
2022-10-19T07:25:13.088Z,18.99
2022-10-19T07:26:23.280Z,18.98
2022-10-19T07:27:24.754Z,18.96
2022-10-19T07:28:26.366Z,18.97
2022-10-19T07:29:27.840Z,18.98
2022-10-19T07:30:29.271Z,18.98
2022-10-19T07:31:31.276Z,18.91
2022-10-19T07:32:32.803Z,18.89
2022-10-19T07:33:34.271Z,18.87
2022-10-19T07:34:35.751Z,18.89
2022-10-19T07:35:37.226Z,18.91
2022-10-19T07:36:39.703Z,18.90
2022-10-19T07:37:41.294Z,18.86
2022-10-19T07:38:42.755Z,18.84
2022-10-19T07:39:44.232Z,18.85
2022-10-19T07:40:47.474Z,18.81
2022-10-19T07:41:49.208Z,18.80
2022-10-19T07:42:50.678Z,18.81
2022-10-19T07:43:52.458Z,18.84
2022-10-19T07:44:53.926Z,18.82
2022-10-19T07:46:02.062Z,18.82
2022-10-19T07:47:04.782Z,18.84
2022-10-19T07:48:06.337Z,18.86
2022-10-19T07:49:09.821Z,18.87
2022-10-19T07:50:11.271Z,18.87
2022-10-19T07:51:13.340Z,18.89
2022-10-19T07:52:14.947Z,18.89
2022-10-19T07:53:16.558Z,18.90
2022-10-19T07:54:18.052Z,18.92
2022-10-19T07:55:19.847Z,18.91
2022-10-19T07:56:22.443Z,18.94
2022-10-19T07:57:23.876Z,18.95
2022-10-19T07:58:25.344Z,18.97
2022-10-19T07:59:26.824Z,18.98
2022-10-19T08:00:28.494Z,18.99
2022-10-19T08:01:30.883Z,18.97
2022-10-19T08:02:39.679Z,18.96
2022-10-19T08:05:16.100Z,18.99
2022-10-19T08:06:19.089Z,19.00
2022-10-19T08:07:20.615Z,19.03
2022-10-19T08:08:22.064Z,19.01
2022-10-19T08:09:51.020Z,19.00
2022-10-19T08:10:45.145Z,18.96
2022-10-19T08:11:46.599Z,19.00
2022-10-19T08:12:48.062Z,18.98
2022-10-19T08:13:49.542Z,18.94
2022-10-19T08:14:51.043Z,18.95
2022-10-19T08:15:52.585Z,18.97
2022-10-19T08:16:54.022Z,18.96
2022-10-19T08:17:55.548Z,18.96
2022-10-19T08:18:57.768Z,19.00
2022-10-19T08:19:59.257Z,19.00
2022-10-19T08:21:01.896Z,19.03
2022-10-19T08:22:03.366Z,19.05
2022-10-19T08:23:05.057Z,19.03
2022-10-19T08:24:06.650Z,19.04
2022-10-19T08:25:08.290Z,19.06
2022-10-19T08:26:09.767Z,19.07
2022-10-19T08:27:11.404Z,19.10
2022-10-19T08:28:12.864Z,19.13
2022-10-19T08:29:15.022Z,19.15
2022-10-19T08:30:16.548Z,19.13
2022-10-19T08:31:18.987Z,19.15
2022-10-19T08:32:20.677Z,19.13
2022-10-19T08:33:22.218Z,19.11
2022-10-19T08:34:23.935Z,19.09
2022-10-19T08:35:25.410Z,19.08
2022-10-19T08:36:27.585Z,19.09
2022-10-19T08:37:40.696Z,19.08
2022-10-19T08:38:48.364Z,19.15
2022-10-19T08:39:49.856Z,19.20
2022-10-19T08:40:51.437Z,19.20
2022-10-19T08:41:57.799Z,19.20
2022-10-19T08:43:20.300Z,19.21
2022-10-19T08:44:40.386Z,19.24
2022-10-19T08:45:44.965Z,19.29
2022-10-19T08:47:07.713Z,19.32
2022-10-19T08:48:15.212Z,19.37
2022-10-19T08:49:19.098Z,19.41
2022-10-19T08:50:21.894Z,19.41
2022-10-19T08:51:23.468Z,19.39
2022-10-19T08:52:29.618Z,19.42
2022-10-19T08:53:39.506Z,19.43
2022-10-19T08:54:42.972Z,19.39
2022-10-19T08:56:05.407Z,19.42
2022-10-19T08:57:06.999Z,19.44
2022-10-19T08:58:14.784Z,19.46
2022-10-19T08:59:19.521Z,19.42
2022-10-19T09:00:24.155Z,19.45
2022-10-19T09:01:46.878Z,19.44
2022-10-19T09:03:07.518Z,19.41
2022-10-19T09:04:28.817Z,19.37
2022-10-19T09:05:40.476Z,19.39
2022-10-19T09:06:43.364Z,19.35
2022-10-19T09:07:46.003Z,19.36
2022-10-19T09:08:47.544Z,19.33
2022-10-19T09:09:50.254Z,19.34
2022-10-19T09:10:52.002Z,19.38
2022-10-19T09:11:54.995Z,19.39
2022-10-19T09:13:00.560Z,19.41
2022-10-19T09:14:06.292Z,19.44
2022-10-19T09:15:11.020Z,19.46
2022-10-19T09:16:13.170Z,19.46
2022-10-19T09:17:14.863Z,19.43
2022-10-19T09:18:23.859Z,19.43
2022-10-19T09:19:26.249Z,19.45
2022-10-19T09:20:35.513Z,19.46
2022-10-19T09:21:54.455Z,19.47
2022-10-19T09:23:13.162Z,19.43
2022-10-19T09:24:24.054Z,19.38
2022-10-19T09:25:25.539Z,19.36
2022-10-19T09:26:31.281Z,19.37
2022-10-19T09:27:34.875Z,19.36
2022-10-19T09:28:55.664Z,19.37
2022-10-19T09:29:57.891Z,19.42
2022-10-19T09:30:59.416Z,19.45
2022-10-19T09:32:01.343Z,19.47
2022-10-19T09:33:02.911Z,19.47
2022-10-19T09:34:24.599Z,19.44
2022-10-19T09:35:38.916Z,19.46
2022-10-19T09:36:54.300Z,19.51
2022-10-19T09:37:55.956Z,19.54
2022-10-19T09:38:57.456Z,19.55
2022-10-19T09:39:59.003Z,19.55
2022-10-19T09:41:19.489Z,19.59
2022-10-19T09:42:22.685Z,19.57
2022-10-19T09:43:25.331Z,19.57
2022-10-19T09:44:27.916Z,19.56
2022-10-19T09:45:34.470Z,19.58
2022-10-19T09:46:38.995Z,19.59
2022-10-19T09:47:40.953Z,19.56
2022-10-19T09:48:44.853Z,19.58
2022-10-19T09:49:47.218Z,19.61
2022-10-19T09:50:51.373Z,19.60
2022-10-19T09:51:52.948Z,19.59
2022-10-19T09:52:55.498Z,19.55
2022-10-19T09:53:57.011Z,19.58
2022-10-19T09:55:01.764Z,19.59
2022-10-19T09:56:04.285Z,19.61
2022-10-19T09:57:05.769Z,19.63
2022-10-19T09:58:13.438Z,19.65
2022-10-19T09:59:20.731Z,19.65
2022-10-19T10:00:25.602Z,19.67
2022-10-19T10:01:41.822Z,19.64
2022-10-19T10:02:48.375Z,19.62
2022-10-19T10:03:52.502Z,19.64
2022-10-19T10:05:06.963Z,19.68
2022-10-19T10:06:09.559Z,19.68
2022-10-19T10:07:17.490Z,19.66
2022-10-19T10:08:19.970Z,19.67
2022-10-19T10:09:22.550Z,19.69
2022-10-19T10:10:30.465Z,19.71
2022-10-19T10:11:38.173Z,19.73
2022-10-19T10:12:39.735Z,19.75
2022-10-19T10:13:42.836Z,19.78
2022-10-19T10:14:44.355Z,19.79
2022-10-19T10:15:49.326Z,19.80
2022-10-19T10:16:57.502Z,19.81
2022-10-19T10:17:58.939Z,19.83
2022-10-19T10:19:01.015Z,19.84
2022-10-19T10:20:05.192Z,19.86
2022-10-19T10:21:13.746Z,19.87
2022-10-19T10:22:28.630Z,19.88
2022-10-19T10:23:31.891Z,19.89
2022-10-19T10:24:33.480Z,19.89
2022-10-19T10:25:36.189Z,19.89
2022-10-19T10:26:38.696Z,19.91
2022-10-19T10:27:40.367Z,19.87
2022-10-19T10:28:48.362Z,19.86
2022-10-19T10:29:54.172Z,19.88
2022-10-19T10:30:59.514Z,19.87
2022-10-19T10:32:03.807Z,19.85
2022-10-19T10:33:15.782Z,19.86
2022-10-19T10:34:37.954Z,19.85
2022-10-19T10:35:49.853Z,19.88
2022-10-19T10:36:51.448Z,19.87
2022-10-19T10:37:52.934Z,19.87
2022-10-19T10:38:56.574Z,19.88
2022-10-19T10:40:00.552Z,19.89
2022-10-19T10:41:08.264Z,19.93
2022-10-19T10:42:10.520Z,19.95
2022-10-19T10:43:15.954Z,19.96
2022-10-19T10:44:18.959Z,19.98
2022-10-19T10:45:22.883Z,19.96
2022-10-19T10:46:28.392Z,19.99
2022-10-19T10:47:29.987Z,19.99
2022-10-19T10:48:31.470Z,19.95
2022-10-19T10:49:34.187Z,19.96
2022-10-19T10:50:35.696Z,19.99
2022-10-19T10:51:37.104Z,20.02
2022-10-19T10:52:56.234Z,20.04
2022-10-19T10:54:09.035Z,20.05
2022-10-19T10:55:10.472Z,20.08
2022-10-19T10:56:25.326Z,20.09
2022-10-19T10:57:28.290Z,20.12
2022-10-19T10:58:37.798Z,20.14
2022-10-19T10:59:45.468Z,20.06
2022-10-19T11:00:47.918Z,20.16
2022-10-19T11:01:54.667Z,20.18
2022-10-19T11:03:16.313Z,20.19
2022-10-19T11:04:19.814Z,20.21
2022-10-19T11:05:50.501Z,20.22
2022-10-19T11:06:53.318Z,20.25
2022-10-19T11:07:57.310Z,20.25
2022-10-19T11:09:01.084Z,20.26
2022-10-19T11:10:06.808Z,20.27
2022-10-19T11:11:14.987Z,20.26
2022-10-19T11:12:16.556Z,20.29
2022-10-19T11:13:20.650Z,20.31
2022-10-19T11:14:39.214Z,20.33
2022-10-19T11:15:53.759Z,20.35
2022-10-19T11:16:55.361Z,20.37
2022-10-19T11:17:59.125Z,20.37
2022-10-19T11:19:00.575Z,20.40
2022-10-19T11:20:02.093Z,20.40
2022-10-19T11:21:22.175Z,20.42
2022-10-19T11:22:28.304Z,20.44
2022-10-19T11:23:36.126Z,20.45
2022-10-19T11:24:46.369Z,20.46
2022-10-19T11:25:54.092Z,20.48
2022-10-19T11:26:55.759Z,20.52
2022-10-19T11:28:15.215Z,20.53
2022-10-19T11:29:23.671Z,20.54
2022-10-19T11:30:25.128Z,20.55
2022-10-19T11:31:32.464Z,20.51
2022-10-19T11:32:47.819Z,20.50
2022-10-19T11:34:01.111Z,20.47
2022-10-19T11:35:09.196Z,20.51
2022-10-19T11:36:13.182Z,20.53
2022-10-19T11:37:23.819Z,20.53
2022-10-19T11:38:43.957Z,20.53
2022-10-19T11:39:48.463Z,20.55
2022-10-19T11:41:16.799Z,20.54
2022-10-19T11:42:20.839Z,20.56
2022-10-19T11:43:27.011Z,20.57
2022-10-19T11:44:44.335Z,20.60
2022-10-19T11:46:04.619Z,20.59
2022-10-19T11:47:08.869Z,20.62
2022-10-19T11:48:19.283Z,20.64
2022-10-19T11:49:28.146Z,20.65
2022-10-19T11:50:32.452Z,20.67
2022-10-19T11:51:36.495Z,20.70
2022-10-19T11:52:41.128Z,20.70
2022-10-19T11:53:48.726Z,20.72
2022-10-19T11:55:02.195Z,20.72
2022-10-19T11:56:09.054Z,20.73
2022-10-19T11:57:16.667Z,20.74
2022-10-19T11:58:21.071Z,20.76
2022-10-19T11:59:22.539Z,20.77
2022-10-19T12:00:40.039Z,20.79
2022-10-19T12:02:00.561Z,20.82
2022-10-19T12:03:20.897Z,20.83
2022-10-19T12:04:28.683Z,20.85
2022-10-19T12:05:33.166Z,20.87
2022-10-19T12:06:53.632Z,20.90
2022-10-19T12:07:57.964Z,20.93
2022-10-19T12:09:21.238Z,20.96
2022-10-19T12:10:40.875Z,20.93
2022-10-19T12:11:51.614Z,20.95
2022-10-19T12:12:53.857Z,20.95
2022-10-19T12:14:03.240Z,20.94
2022-10-19T12:15:40.050Z,20.95
2022-10-19T12:16:45.430Z,20.96
2022-10-19T12:17:47.836Z,20.98
2022-10-19T12:18:53.467Z,21.01
2022-10-19T12:19:56.255Z,21.03
2022-10-19T12:20:58.825Z,21.03
2022-10-19T12:22:01.571Z,21.04
2022-10-19T12:23:06.335Z,21.05
2022-10-19T12:24:11.148Z,21.04
2022-10-19T12:25:12.944Z,21.05
2022-10-19T12:26:15.343Z,21.04
2022-10-19T12:27:17.355Z,21.07
2022-10-19T12:28:21.010Z,21.07
2022-10-19T12:29:29.543Z,21.10
2022-10-19T12:30:31.020Z,21.10
2022-10-19T12:31:32.472Z,21.10
2022-10-19T12:32:54.531Z,21.10
2022-10-19T12:33:58.570Z,21.10
2022-10-19T12:35:29.378Z,21.10
2022-10-19T12:36:36.835Z,21.09
2022-10-19T12:37:41.200Z,21.05
2022-10-19T12:39:00.048Z,21.03
2022-10-19T12:40:19.411Z,21.02
2022-10-19T12:41:43.267Z,21.04
2022-10-19T12:43:01.287Z,21.04
2022-10-19T12:44:11.845Z,21.05
2022-10-19T12:45:18.219Z,21.03
2022-10-19T12:46:25.420Z,21.05
2022-10-19T12:47:26.852Z,21.07
2022-10-19T12:48:28.323Z,21.04
2022-10-19T12:49:29.741Z,21.05
2022-10-19T12:50:49.595Z,21.07
2022-10-19T12:51:52.157Z,21.07
2022-10-19T12:52:54.688Z,21.07
2022-10-19T12:54:06.856Z,21.08
2022-10-19T12:55:11.175Z,21.05
2022-10-19T12:56:19.903Z,21.03
2022-10-19T12:57:23.515Z,21.03
2022-10-19T12:58:25.000Z,21.02
2022-10-19T12:59:27.716Z,21.03
2022-10-19T13:00:30.821Z,21.05
2022-10-19T13:01:35.072Z,21.06
2022-10-19T13:02:36.813Z,21.06
2022-10-19T13:03:38.892Z,21.05
2022-10-19T13:04:40.314Z,21.06
2022-10-19T13:05:41.792Z,21.08
2022-10-19T13:06:43.220Z,21.06
2022-10-19T13:07:44.742Z,21.08
2022-10-19T13:08:47.754Z,21.07
2022-10-19T13:09:49.562Z,21.09
2022-10-19T13:11:07.206Z,21.10
2022-10-19T13:12:17.759Z,21.12
2022-10-19T13:13:50.943Z,21.12
2022-10-19T13:14:53.162Z,21.13
2022-10-19T13:15:54.639Z,21.13
2022-10-19T13:16:59.955Z,21.16
2022-10-19T13:18:04.630Z,21.19
2022-10-19T13:19:11.950Z,21.17
2022-10-19T13:20:13.403Z,21.20
2022-10-19T13:21:34.917Z,21.21
2022-10-19T13:22:36.701Z,21.22
2022-10-19T13:23:38.795Z,21.23
2022-10-19T13:25:43.071Z,21.18
2022-10-19T13:26:45.150Z,21.16
2022-10-19T13:28:09.948Z,21.12
2022-10-19T13:29:26.881Z,21.12
2022-10-19T13:30:46.539Z,21.16
2022-10-19T13:31:48.040Z,21.15
2022-10-19T13:32:49.772Z,21.13
2022-10-19T13:33:51.241Z,21.15
2022-10-19T13:34:52.682Z,21.15
2022-10-19T13:35:59.766Z,21.16
2022-10-19T13:37:02.047Z,21.19
2022-10-19T13:38:09.127Z,21.18
2022-10-19T13:39:13.471Z,21.17
2022-10-19T13:40:23.567Z,21.16
2022-10-19T13:41:27.191Z,21.14
2022-10-19T13:42:28.627Z,21.16
2022-10-19T13:43:53.376Z,21.17
2022-10-19T13:44:55.947Z,21.19
2022-10-19T13:46:01.435Z,21.16
2022-10-19T13:47:05.547Z,21.16
2022-10-19T13:48:11.236Z,21.16
2022-10-19T13:49:19.809Z,21.18
2022-10-19T13:50:31.696Z,21.16
2022-10-19T13:51:35.979Z,21.12
2022-10-19T13:52:40.451Z,21.15
2022-10-19T13:54:08.506Z,21.17
2022-10-19T13:55:23.348Z,21.17
2022-10-19T13:56:27.732Z,21.19
2022-10-19T13:57:44.496Z,21.21
2022-10-19T13:59:12.442Z,21.21
2022-10-19T14:00:16.860Z,21.22